Flight Track Log - Related Links

Times and Time Zones

All times are in EDT time to prevent confusion due to time zone crossing. See the RPA3499 flight status page for this flight to view local times or setup timezone preferences in your user account.

Time Position Orientation Groundspeed Altitude Reporting Facility
EDT Latitude Longitude Course Direction KTS MPH feet Rate Location/Type
Thu 11:36:01 AM 44.5458 -73.2703 195° South 195 224 5,100  Level Boston Center
Thu 11:37:01 AM 44.5325 -73.3519 257° West 245 282 8,400 2,926 Climbing Boston Center
Thu 11:38:02 AM 44.4494 -73.3744 191° South 290 334 11,000 2,516 Climbing Boston Center
Thu 11:39:05 AM 44.3581 -73.3978 190° South 324 373 13,600 2,468 Climbing Boston Center
Thu 11:40:00 AM 43.8723 -73.3667 195° South  Level FlightAware Approximate
Thu 11:40:06 AM 44.2611 -73.4208 190° South 350 403 16,100  Level Boston Center
Thu 11:41:00 AM 43.7820 -73.4006 195° South  Level FlightAware Approximate
Thu 11:41:06 AM 44.1608 -73.4478 191° South 365 420 18,100  Level Boston Center
Thu 11:42:09 AM 44.0561 -73.4739 190° South 381 438 19,300 1,742 Climbing Boston Center
Thu 11:43:10 AM 43.9269 -73.5081 191° South 395 455 21,700 1,835 Climbing Boston Center
Thu 11:44:10 AM 43.8150 -73.5336 189° South 403 464 23,000 893 Climbing Boston Center
Thu 11:45:11 AM 43.7017 -73.5631 191° South 411 473 23,500 1,000 Climbing Boston Center
Thu 11:46:16 AM 43.6050 -73.6264 205° Southwest 394 453 25,100 1,200 Climbing Boston Center
Thu 11:47:16 AM 43.5186 -73.7097 215° Southwest 382 440 26,000 450 Climbing Boston Center
Thu 11:48:16 AM 43.4308 -73.7919 214° Southwest 383 441 26,000  Level Boston Center
Thu 11:49:20 AM 43.3453 -73.8750 215° Southwest 381 438 26,000  Level Boston Center
Thu 11:50:21 AM 43.2606 -73.9553 215° Southwest 377 434 26,000  Level Boston Center
Thu 11:51:21 AM 43.1767 -74.0203 209° Southwest 362 417 26,000  Level Boston Center
Thu 11:52:22 AM 43.0422 -74.0094 177° South 407 468 26,000  Level Boston Center
Thu 11:53:26 AM 42.9283 -73.9936 174° South 410 472 26,000  Level Boston Center
Thu 11:54:27 AM 42.8264 -73.9781 174° South 410 472 26,000  Level Boston Center
Thu 11:55:28 AM 42.7194 -73.9906 185° South 392 451 26,000  Level Boston Center
Thu 11:56:29 AM 42.6433 -74.0994 226° Southwest 362 417 26,000  Level Boston Center
Thu 11:57:29 AM 42.5817 -74.2139 234° Southwest 353 406 26,000  Level Boston Center
Thu 11:58:30 AM 42.5256 -74.3192 234° Southwest 351 404 26,000  Level Boston Center
Thu 11:59:34 AM 42.4678 -74.4244 233° Southwest 348 400 26,000  Level Boston Center
Thu 12:00:34 PM 42.4144 -74.5256 234° Southwest 349 402 26,000  Level Boston Center
Thu 12:01:35 PM 42.3561 -74.6319 233° Southwest 349 402 26,000  Level Boston Center
Thu 12:02:36 PM 42.2708 -74.7450 224° Southwest 354 407 26,000 -435 Level Boston Center
Thu 12:03:39 PM 42.1969 -74.8392 223° Southwest 363 418 25,100 -1,306 Descending Boston Center
Thu 12:04:40 PM 42.1256 -74.9303 223° Southwest 357 411 23,300 -1,820 Descending Boston Center
Thu 12:05:41 PM 42.0569 -75.0167 223° Southwest 343 395 21,400 -1,736 Descending Boston Center
Thu 12:06:41 PM 41.9939 -75.0978 224° Southwest 342 394 19,800 -1,190 Descending Boston Center
Thu 12:07:42 PM 41.9169 -75.1739 216° Southwest 344 396 19,000 -387 Descending Boston Center
Thu 12:08:45 PM 41.8333 -75.2414 211° Southwest 348 400 19,000 -871 Level Boston Center
Thu 12:09:46 PM 41.7358 -75.3200 211° Southwest 344 396 17,200 -1,590 Descending Boston Center
Thu 12:10:42 PM 41.6611 -75.3828 212° Southwest 350 403 15,900 -1,397 Descending New York Center
Thu 12:11:42 PM 41.5881 -75.4386 210° Southwest 344 396 14,500 -1,400 Descending New York Center
Thu 12:12:42 PM 41.5128 -75.5000 211° Southwest 344 396 13,100 -1,250 Descending New York Center
Thu 12:13:42 PM 41.4289 -75.5661 211° Southwest 331 381 12,000 -550 Descending New York Center
Thu 12:14:42 PM 41.3686 -75.6142 211° Southwest 326 375 12,000  Level New York Center
Thu 12:15:42 PM 41.2844 -75.6800 210° Southwest 326 375 12,000  Level New York Center
Thu 12:16:42 PM 41.1967 -75.6900 185° South 314 361 12,000  Level New York Center
Thu 12:17:42 PM 41.1031 -75.6889 179° South 329 379 12,000  Level New York Center
Thu 12:18:42 PM 41.0072 -75.6875 179° South 330 380 12,000  Level New York Center
Thu 12:19:42 PM 40.9114 -75.6861 179° South 335 386 12,000  Level New York Center
Thu 12:20:42 PM 40.8303 -75.6828 178° South 335 386 12,000  Level New York Center
Thu 12:21:42 PM 40.7428 -75.6328 157° South 328 377 12,000  Level New York Center
Thu 12:22:42 PM 40.6575 -75.5775 154° Southeast 343 395 12,000 -550 Level New York Center
Thu 12:23:42 PM 40.5725 -75.5142 150° Southeast 348 400 10,900 -1,000 Descending New York Center
Thu 12:24:42 PM 40.4914 -75.4594 153° Southeast 342 394 10,000 -550 Descending New York Center
Thu 12:25:42 PM 40.4058 -75.4072 155° Southeast 322 371 9,800 -700 Descending New York Center
Thu 12:26:42 PM 40.3278 -75.3831 167° South 306 352 8,600 -1,300 Descending New York Center
Thu 12:27:42 PM 40.2708 -75.4472 221° Southwest 253 291 7,200 -800 Descending New York Center
Thu 12:28:42 PM 40.2292 -75.5042 226° Southwest 248 285 7,000 -100 Descending New York Center
Thu 12:29:42 PM 40.1544 -75.4964 175° South 236 272 7,000 -300 Level New York Center
Thu 12:30:42 PM 40.0939 -75.4433 146° Southeast 248 285 6,400 -500 Descending New York Center
Thu 12:31:42 PM 40.0367 -75.4150 159° South 253 291 6,000 -200 Descending New York Center
Thu 12:32:42 PM 39.9644 -75.3942 168° South 248 285 6,000  Level New York Center
Thu 12:33:42 PM 39.9233 -75.4319 215° Southwest 189 217 6,000 -450 Level New York Center
Thu 12:34:42 PM 39.9128 -75.4881 256° West 169 194 5,100 -500 Descending New York Center
Thu 12:35:42 PM 39.8981 -75.5467 252° West 176 203 5,000 -200 Descending New York Center
Thu 12:36:42 PM 39.8556 -75.5628 196° South 148 170 4,700 -800 Descending New York Center
Thu 12:37:42 PM 39.8147 -75.5436 160° South 164 189 3,400 -1,279 Descending New York Center
Thu 12:38:44 PM 39.8167 -75.4833 88° East 166 191 2,100 -689 Descending Philadelphia TRACON
Thu 12:39:44 PM 39.8333 -75.4167 72° East 165 190 2,000 -300 Descending Philadelphia TRACON
Thu 12:40:44 PM 39.8500 -75.3667 67° East 155 178 1,500 -600 Descending Philadelphia TRACON
Thu 12:41:44 PM 39.8500 -75.3167 90° East 128 147 800 -700 Descending Philadelphia TRACON
Thu 12:43:00 PM 39.8667 -75.2333 82° East  Level FlightAware Approximate
Thu 12:50:00 PM 39.8722 -75.2409 82° East  Level Estimated
Thu 12:51:00 PM 39.8722 -75.2409 265° West  Level Estimated

Login

Don't have an account? Register now (free) for customized features, flight alerts, and more!